SBQV

Details ICAO SBQV (VDC)
Name VITORIA DA CONQUISTA
Region Brazil
Timezone America/Bahia (UTC-3.0)
Plans Departing 4
Arriving 6
Stats Elevation 2,998 ft / 914 m (AMSL)
Location -14.862759° -40.863104°
Runways 1
Magnetic Variation 23.383° W
Sunrise 2016-12-05 08:06:49 UTC / 2016-12-05 05:06:49 Local
Sunset 2016-12-05 21:04:39 UTC / 2016-12-05 18:04:39 Local
Advertisement - Login to hide

Runways

ID Width Length Bearing (true) Bearing (mag) Surface Threshold Offset Overrun Length
15 98 ft / 30 m 5,831 ft / 1,777 m 126.17° 149.55° Asphalt 0 ft / 0 m 175 ft / 53 m
33 98 ft / 30 m 5,831 ft / 1,777 m 306.17° 329.55° Asphalt 0 ft / 0 m 0 ft / 0 m

Map

Weather

Temperature
Clouds and Precipitation
Forecast for 2016-12-05 18:00 UTC. Updated an hour ago
Winds

METAR

SBQV 051600Z 35009KT 9999 SCT028 29/17 Q1015

TAF

Not found

Frequencies

Tower 130.30 MHz RDO
Warning: Do not use this data for real-world aviation or navigation. No guarantee of current accuracy is given.